Time;durP1;ratioP1;P1;durP2;ratioP2;P2;SDS_P1;SDS_P2;PMS_P1;PMS_P2;Temp;Humidity;BMP_temperature;BMP_pressure;BME280_temperature;BME280_humidity;BME280_pressure;Samples;Min_cycle;Max_cycle;Signal;HPM_P1;HPM_P2
2023/09/25 00:00:33;;;;;;;3.55;1.75;;;13.90;99.90;;;;;;5094109;28;20072;-53
2023/09/25 00:03:00;;;;;;;3.28;1.60;;;14.00;99.90;;;;;;5093882;28;20119;-55
2023/09/25 00:05:27;;;;;;;3.20;1.45;;;14.00;99.90;;;;;;5084834;28;20486;-54
2023/09/25 00:07:53;;;;;;;5.00;1.58;;;14.00;99.90;;;;;;5093681;28;20048;-53
2023/09/25 00:10:19;;;;;;;2.63;1.73;;;14.00;99.90;;;;;;5093679;28;20466;-53
2023/09/25 00:12:45;;;;;;;4.45;1.77;;;14.00;99.90;;;;;;5082757;28;20044;-53
2023/09/25 00:15:10;;;;;;;4.18;2.03;;;14.00;99.90;;;;;;5092494;28;20458;-55
2023/09/25 00:17:37;;;;;;;4.30;1.48;;;14.00;99.90;;;;;;5082191;28;20040;-54
2023/09/25 00:20:04;;;;;;;2.50;1.52;;;14.00;99.90;;;;;;5093612;28;20062;-51
2023/09/25 00:22:30;;;;;;;5.05;1.63;;;14.00;99.90;;;;;;5093450;28;20195;-55
2023/09/25 00:24:57;;;;;;;5.25;1.73;;;14.00;99.90;;;;;;5093745;28;20102;-56
2023/09/25 00:27:25;;;;;;;4.18;2.00;;;14.00;99.90;;;;;;5093453;28;20047;-55
2023/09/25 00:29:51;;;;;;;2.03;1.30;;;14.00;99.90;;;;;;5093570;28;20036;-54
2023/09/25 00:32:17;;;;;;;3.67;1.30;;;14.00;99.90;;;;;;5092369;28;20081;-54
2023/09/25 00:34:42;;;;;;;2.42;1.45;;;14.00;99.90;;;;;;5093681;28;20101;-53
2023/09/25 00:37:08;;;;;;;3.58;1.65;;;14.00;99.90;;;;;;5093488;28;20041;-56
2023/09/25 00:39:33;;;;;;;3.97;1.38;;;14.00;99.90;;;;;;5093054;28;20036;-54
2023/09/25 00:41:59;;;;;;;3.95;1.38;;;14.00;99.90;;;;;;5093061;28;20474;-53
2023/09/25 00:44:25;;;;;;;3.63;1.63;;;14.00;99.90;;;;;;5093215;28;20028;-53
2023/09/25 00:46:51;;;;;;;2.67;1.55;;;13.90;99.90;;;;;;5092952;28;20577;-51
2023/09/25 00:49:17;;;;;;;4.15;1.65;;;14.00;99.90;;;;;;5093001;28;20089;-54
2023/09/25 00:51:44;;;;;;;2.40;1.23;;;13.90;99.90;;;;;;5093103;28;20390;-55
2023/09/25 00:54:11;;;;;;;2.83;1.75;;;13.90;99.90;;;;;;5091947;28;20466;-55
2023/09/25 00:56:37;;;;;;;6.25;2.40;;;13.90;99.90;;;;;;5092849;28;20389;-54
2023/09/25 00:59:03;;;;;;;3.33;1.40;;;13.90;99.90;;;;;;5093072;28;20036;-54
2023/09/25 01:01:29;;;;;;;3.63;2.00;;;13.90;99.90;;;;;;5092835;28;20120;-55
2023/09/25 01:03:55;;;;;;;3.58;1.85;;;13.80;99.90;;;;;;5083858;28;20119;-54
2023/09/25 01:06:21;;;;;;;2.58;1.63;;;13.80;99.90;;;;;;5092574;28;20482;-52
2023/09/25 01:08:46;;;;;;;3.20;1.80;;;13.80;99.90;;;;;;5092978;28;20043;-52
2023/09/25 01:11:12;;;;;;;2.08;1.60;;;13.80;99.90;;;;;;5089890;28;20051;-51
2023/09/25 01:13:38;;;;;;;4.15;1.73;;;13.80;99.90;;;;;;5092851;28;20525;-53
2023/09/25 01:16:04;;;;;;;2.83;1.70;;;13.80;99.90;;;;;;5088806;28;20487;-54
2023/09/25 01:18:30;;;;;;;4.30;2.13;;;13.80;99.90;;;;;;5085222;28;20044;-54
2023/09/25 01:20:55;;;;;;;3.05;1.83;;;13.80;99.90;;;;;;5092202;28;20059;-55
2023/09/25 01:23:21;;;;;;;2.45;1.60;;;13.80;99.90;;;;;;5091897;28;20646;-54
2023/09/25 01:25:47;;;;;;;5.07;1.73;;;13.80;99.90;;;;;;5092687;28;20481;-53
2023/09/25 01:28:13;;;;;;;3.92;1.85;;;13.70;99.90;;;;;;5092368;28;20071;-54
2023/09/25 01:30:38;;;;;;;4.13;1.67;;;13.70;99.90;;;;;;5092694;28;20117;-54
2023/09/25 01:33:04;;;;;;;4.30;1.85;;;13.60;99.90;;;;;;5092217;28;20032;-55
2023/09/25 01:35:30;;;;;;;2.28;1.75;;;13.60;99.90;;;;;;5092241;28;20536;-53
2023/09/25 01:38:00;;;;;;;4.43;2.05;;;13.50;99.90;;;;;;5091249;28;20028;-55
2023/09/25 01:40:27;;;;;;;5.82;2.28;;;13.50;99.90;;;;;;5092386;28;20066;-53
2023/09/25 01:42:52;;;;;;;4.40;1.90;;;13.50;99.90;;;;;;5090686;28;20115;-55
2023/09/25 01:45:19;;;;;;;4.68;1.90;;;13.50;99.90;;;;;;5092195;28;20534;-54
2023/09/25 01:47:50;;;;;;;4.28;2.10;;;13.50;99.90;;;;;;5090213;28;20123;-53
2023/09/25 01:50:24;;;;;;;4.47;2.28;;;13.40;99.90;;;;;;5092082;28;20482;-53
2023/09/25 01:53:00;;;;;;;4.68;2.38;;;13.40;99.90;;;;;;5091365;28;20032;-55
2023/09/25 01:55:35;;;;;;;3.97;2.20;;;13.40;99.90;;;;;;5091987;28;20036;-56
2023/09/25 01:58:01;;;;;;;7.13;2.25;;;13.40;99.90;;;;;;5092147;28;20070;-55
2023/09/25 02:00:27;;;;;;;2.92;2.13;;;13.40;99.90;;;;;;5092258;28;20676;-53
2023/09/25 02:02:52;;;;;;;4.10;2.30;;;13.40;99.90;;;;;;5092145;28;20130;-54
2023/09/25 02:05:18;;;;;;;3.72;2.38;;;13.40;99.90;;;;;;5091788;28;20100;-56
2023/09/25 02:07:44;;;;;;;2.53;2.33;;;13.30;99.90;;;;;;5091794;28;20032;-54
2023/09/25 02:10:09;;;;;;;4.18;1.92;;;13.30;99.90;;;;;;5091871;28;20032;-54
2023/09/25 02:12:35;;;;;;;5.68;2.70;;;13.20;99.90;;;;;;5088399;28;20043;-54
2023/09/25 02:15:03;;;;;;;5.70;2.38;;;13.20;99.90;;;;;;5090525;28;20046;-55
2023/09/25 02:17:29;;;;;;;4.63;2.20;;;13.20;99.90;;;;;;5083680;28;20113;-55
2023/09/25 02:20:10;;;;;;;3.60;2.53;;;13.20;99.90;;;;;;5091500;28;20083;-53
2023/09/25 02:22:36;;;;;;;7.82;2.35;;;13.20;99.90;;;;;;5091824;28;20136;-54
2023/09/25 02:25:02;;;;;;;4.32;2.20;;;13.30;99.90;;;;;;5091669;28;20474;-54
2023/09/25 02:27:27;;;;;;;5.07;2.25;;;13.20;99.90;;;;;;5091376;28;20055;-54
2023/09/25 02:29:53;;;;;;;4.40;2.78;;;13.20;99.90;;;;;;5091773;28;20044;-52
2023/09/25 02:32:19;;;;;;;7.78;2.30;;;13.20;99.90;;;;;;5091788;28;20409;-52
2023/09/25 02:34:44;;;;;;;3.97;2.17;;;13.20;99.90;;;;;;5091883;28;20076;-53
2023/09/25 02:37:10;;;;;;;4.80;2.30;;;13.20;99.90;;;;;;5091418;28;20465;-54
2023/09/25 02:39:35;;;;;;;4.90;2.90;;;13.20;99.90;;;;;;5091555;28;20028;-53
2023/09/25 02:42:01;;;;;;;3.17;2.35;;;13.10;99.90;;;;;;5078139;28;20109;-52
2023/09/25 02:44:27;;;;;;;4.78;2.53;;;13.20;99.90;;;;;;5090808;28;20563;-54
2023/09/25 02:46:53;;;;;;;4.22;2.05;;;13.10;99.90;;;;;;5080114;28;20033;-55
2023/09/25 02:49:19;;;;;;;3.85;2.53;;;13.10;99.90;;;;;;5088873;28;20036;-53
2023/09/25 02:51:44;;;;;;;3.17;2.17;;;13.10;99.90;;;;;;5091308;28;20047;-52
2023/09/25 02:54:10;;;;;;;4.47;2.75;;;13.10;99.90;;;;;;5091311;28;20079;-55
2023/09/25 02:56:36;;;;;;;3.58;2.40;;;13.10;99.90;;;;;;5091250;28;20067;-55
2023/09/25 02:59:02;;;;;;;5.95;2.38;;;13.00;99.90;;;;;;5091504;28;20042;-53
2023/09/25 03:01:27;;;;;;;2.95;2.33;;;13.00;99.90;;;;;;5091451;28;20044;-54
2023/09/25 03:03:53;;;;;;;5.95;2.72;;;13.00;99.90;;;;;;5094296;28;20040;-55
2023/09/25 03:06:19;;;;;;;3.95;2.40;;;13.00;99.90;;;;;;5095195;28;20482;-55
2023/09/25 03:08:45;;;;;;;6.28;2.83;;;13.00;99.90;;;;;;5094040;28;20040;-54
2023/09/25 03:11:10;;;;;;;5.47;2.35;;;13.00;99.90;;;;;;5092092;28;20050;-56
2023/09/25 03:13:36;;;;;;;4.57;2.60;;;13.00;99.90;;;;;;5095187;28;20534;-56
2023/09/25 03:16:02;;;;;;;5.50;2.50;;;13.00;99.90;;;;;;5092522;28;20107;-54
2023/09/25 03:18:27;;;;;;;4.65;2.42;;;13.00;99.90;;;;;;5090461;28;20079;-54
2023/09/25 03:20:53;;;;;;;5.63;2.40;;;12.90;99.90;;;;;;5094727;28;20383;-55
2023/09/25 03:23:19;;;;;;;4.20;2.45;;;12.90;99.90;;;;;;5095072;28;20055;-54
2023/09/25 03:25:44;;;;;;;5.35;2.45;;;12.90;99.90;;;;;;5094751;28;20043;-55
2023/09/25 03:28:10;;;;;;;3.25;2.22;;;12.90;99.90;;;;;;5094919;28;20375;-53
2023/09/25 03:30:35;;;;;;;3.90;2.25;;;12.90;99.90;;;;;;5094802;28;20050;-55
2023/09/25 03:33:01;;;;;;;5.00;2.75;;;12.90;99.90;;;;;;5094681;28;20093;-53
2023/09/25 03:35:27;;;;;;;4.53;2.60;;;12.90;99.90;;;;;;5094557;28;20389;-55
2023/09/25 03:37:52;;;;;;;3.17;2.60;;;12.90;99.90;;;;;;5094637;28;20036;-54
2023/09/25 03:40:18;;;;;;;3.88;2.05;;;12.90;99.90;;;;;;5094326;28;20039;-56
2023/09/25 03:42:43;;;;;;;5.95;2.95;;;12.80;99.90;;;;;;5082949;28;20469;-50
2023/09/25 03:45:09;;;;;;;3.85;2.50;;;12.90;99.90;;;;;;5094626;28;20036;-55
2023/09/25 03:47:35;;;;;;;7.30;2.70;;;12.90;99.90;;;;;;5094419;28;20090;-53
2023/09/25 03:50:04;;;;;;;4.70;2.22;;;12.90;99.90;;;;;;5094237;28;20506;-55
2023/09/25 03:52:31;;;;;;;3.10;2.80;;;12.90;99.90;;;;;;5094175;28;20089;-54
2023/09/25 03:54:56;;;;;;;5.43;2.50;;;12.90;99.90;;;;;;5094140;28;20039;-53
2023/09/25 03:57:22;;;;;;;3.38;2.15;;;12.90;99.90;;;;;;5094424;28;20398;-53
2023/09/25 03:59:47;;;;;;;5.18;2.38;;;12.90;99.90;;;;;;5094713;28;20439;-53
2023/09/25 04:02:13;;;;;;;3.90;2.40;;;12.90;99.90;;;;;;5094279;28;20047;-52
2023/09/25 04:04:39;;;;;;;5.75;2.63;;;12.80;99.90;;;;;;5094161;28;20036;-54
2023/09/25 04:07:04;;;;;;;3.63;2.65;;;12.80;99.90;;;;;;5094185;28;20093;-56
2023/09/25 04:09:30;;;;;;;3.85;2.70;;;12.90;99.90;;;;;;5093560;28;20508;-55
2023/09/25 04:11:57;;;;;;;6.55;2.60;;;12.80;99.90;;;;;;5093969;28;20058;-54
2023/09/25 04:14:23;;;;;;;3.33;2.55;;;12.80;99.90;;;;;;5093149;28;20036;-53
2023/09/25 04:16:49;;;;;;;5.35;2.72;;;12.80;99.90;;;;;;5093799;28;20123;-55
2023/09/25 04:19:15;;;;;;;2.72;2.20;;;12.80;99.90;;;;;;5093688;28;20135;-53
2023/09/25 04:21:42;;;;;;;4.55;2.35;;;12.80;99.90;;;;;;5093746;28;20052;-54
2023/09/25 04:24:10;;;;;;;6.70;2.60;;;12.80;99.90;;;;;;5093671;28;20036;-54
2023/09/25 04:26:39;;;;;;;3.08;2.20;;;12.80;99.90;;;;;;5093917;28;20036;-51
2023/09/25 04:29:05;;;;;;;4.80;2.95;;;12.80;99.90;;;;;;5093531;28;20044;-50
2023/09/25 04:31:31;;;;;;;3.45;2.60;;;12.80;99.90;;;;;;5093578;28;20498;-52
2023/09/25 04:33:57;;;;;;;6.75;2.47;;;12.80;99.90;;;;;;5093377;28;20043;-53
2023/09/25 04:36:23;;;;;;;5.30;2.70;;;12.80;99.90;;;;;;5093466;28;20036;-54
2023/09/25 04:38:49;;;;;;;8.68;2.58;;;12.80;99.90;;;;;;5093294;28;20067;-54
2023/09/25 04:41:15;;;;;;;2.97;2.50;;;12.70;99.90;;;;;;5086198;28;20478;-54
2023/09/25 04:43:40;;;;;;;3.42;2.58;;;12.80;99.90;;;;;;5086451;28;20039;-54
2023/09/25 04:46:06;;;;;;;4.70;2.92;;;12.80;99.90;;;;;;5092846;28;20063;-54
2023/09/25 04:48:31;;;;;;;5.35;2.75;;;12.80;99.90;;;;;;5093263;28;20107;-55
2023/09/25 04:50:57;;;;;;;4.90;2.50;;;12.80;99.90;;;;;;5092395;28;20039;-54
2023/09/25 04:53:23;;;;;;;5.55;2.85;;;12.80;99.90;;;;;;5093036;28;20383;-55
2023/09/25 04:55:48;;;;;;;8.77;2.78;;;12.80;99.90;;;;;;5093326;28;20394;-55
2023/09/25 04:58:14;;;;;;;8.73;3.13;;;12.80;99.90;;;;;;5093411;28;20150;-53
2023/09/25 05:00:41;;;;;;;5.60;3.15;;;12.70;99.90;;;;;;5091454;28;20385;-55
2023/09/25 05:03:07;;;;;;;4.70;2.90;;;12.70;99.90;;;;;;5088578;28;20050;-53
2023/09/25 05:05:32;;;;;;;2.95;2.65;;;12.70;99.90;;;;;;5092712;28;20035;-51
2023/09/25 05:07:58;;;;;;;4.95;2.63;;;12.80;99.90;;;;;;5093191;28;20036;-51
2023/09/25 05:10:26;;;;;;;3.55;2.75;;;12.70;99.90;;;;;;5092870;28;20039;-52
2023/09/25 05:12:52;;;;;;;4.53;2.85;;;12.70;99.90;;;;;;5086183;28;20482;-54
2023/09/25 05:15:19;;;;;;;8.57;2.95;;;12.70;99.90;;;;;;5092753;28;20032;-55
2023/09/25 05:17:45;;;;;;;3.78;2.70;;;12.70;99.90;;;;;;5085852;28;20040;-54
2023/09/25 05:20:22;;;;;;;4.72;2.78;;;12.70;99.90;;;;;;5092331;28;20063;-56
2023/09/25 05:22:53;;;;;;;4.80;2.40;;;12.70;99.90;;;;;;5092838;28;20031;-54
2023/09/25 05:25:20;;;;;;;4.68;2.78;;;12.70;99.90;;;;;;5092431;28;20044;-56
2023/09/25 05:27:51;;;;;;;4.88;3.10;;;12.70;99.90;;;;;;5092579;28;20123;-53
2023/09/25 05:30:18;;;;;;;5.00;3.00;;;12.60;99.90;;;;;;5092298;28;20036;-55
2023/09/25 05:32:46;;;;;;;3.70;2.80;;;12.70;99.90;;;;;;5092262;28;20061;-54
2023/09/25 05:35:12;;;;;;;5.03;2.60;;;12.60;99.90;;;;;;5092441;28;20036;-53
2023/09/25 05:37:38;;;;;;;5.30;2.42;;;12.70;99.90;;;;;;5084449;28;20044;-55
2023/09/25 05:40:09;;;;;;;6.68;2.85;;;12.60;99.90;;;;;;5092425;28;20043;-54
2023/09/25 05:42:36;;;;;;;5.53;2.78;;;12.60;99.90;;;;;;5080269;28;20078;-54
2023/09/25 05:45:01;;;;;;;4.13;2.85;;;12.60;99.90;;;;;;5092169;28;20044;-53
2023/09/25 05:47:27;;;;;;;6.28;2.70;;;12.60;99.90;;;;;;5092444;28;20046;-54
2023/09/25 05:49:53;;;;;;;2.97;2.58;;;12.60;99.90;;;;;;5092386;28;20571;-53
2023/09/25 05:52:18;;;;;;;4.57;2.63;;;12.60;99.90;;;;;;5091956;28;20111;-54
2023/09/25 05:54:45;;;;;;;5.47;2.95;;;12.60;99.90;;;;;;5092181;28;20064;-55
2023/09/25 05:57:11;;;;;;;4.45;3.05;;;12.60;99.90;;;;;;5092115;28;20047;-52
2023/09/25 05:59:36;;;;;;;5.97;3.28;;;12.60;99.90;;;;;;5091959;28;20044;-53
2023/09/25 06:02:02;;;;;;;7.07;2.78;;;12.60;99.90;;;;;;5090716;28;20131;-53
2023/09/25 06:04:28;;;;;;;7.22;3.15;;;12.60;99.90;;;;;;5092150;28;20036;-54
2023/09/25 06:06:55;;;;;;;7.53;2.67;;;12.60;99.90;;;;;;5091884;28;20039;-51
2023/09/25 06:09:21;;;;;;;3.40;2.60;;;12.70;99.90;;;;;;5091972;28;20078;-54
2023/09/25 06:11:47;;;;;;;4.25;2.45;;;12.60;99.90;;;;;;5091642;28;20055;-52
2023/09/25 06:14:13;;;;;;;5.53;3.30;;;12.60;99.90;;;;;;5091913;28;20040;-54
2023/09/25 06:16:41;;;;;;;6.00;3.25;;;12.60;99.90;;;;;;5091740;28;20438;-51
2023/09/25 06:19:08;;;;;;;5.07;2.83;;;12.70;99.90;;;;;;5086285;28;20048;-52
2023/09/25 06:21:34;;;;;;;4.72;2.42;;;12.70;99.90;;;;;;5089745;28;20508;-53
2023/09/25 06:23:59;;;;;;;5.18;3.42;;;12.80;99.90;;;;;;5092231;28;20139;-55
2023/09/25 06:26:27;;;;;;;5.07;3.20;;;12.80;99.90;;;;;;5091509;28;20398;-54
2023/09/25 06:28:56;;;;;;;4.32;2.90;;;12.80;99.90;;;;;;5091606;28;20040;-54
2023/09/25 06:31:23;;;;;;;6.60;3.03;;;12.90;99.90;;;;;;5091769;28;20032;-51
2023/09/25 06:33:49;;;;;;;4.43;2.63;;;12.80;99.90;;;;;;5091780;28;20036;-53
2023/09/25 06:36:15;;;;;;;5.25;2.67;;;12.90;99.90;;;;;;5091831;28;20036;-55
2023/09/25 06:38:40;;;;;;;3.65;2.70;;;13.00;99.90;;;;;;5094285;28;20047;-52
2023/09/25 06:41:10;;;;;;;3.83;2.50;;;13.40;99.90;;;;;;5091889;28;20593;-54
2023/09/25 06:43:36;;;;;;;2.88;2.40;;;13.00;99.90;;;;;;5087357;28;20044;-55
2023/09/25 06:46:02;;;;;;;3.67;2.70;;;13.00;99.90;;;;;;5095850;28;20592;-53
2023/09/25 06:48:27;;;;;;;2.60;2.30;;;13.10;99.90;;;;;;5095354;28;20509;-55
2023/09/25 06:50:53;;;;;;;2.97;2.58;;;13.10;99.90;;;;;;5095536;28;20039;-54
2023/09/25 06:53:19;;;;;;;7.05;3.10;;;13.10;99.90;;;;;;5095545;28;20028;-55
2023/09/25 06:55:44;;;;;;;6.18;2.92;;;13.10;99.90;;;;;;5095350;28;20043;-54
2023/09/25 06:58:10;;;;;;;4.05;2.60;;;13.10;99.90;;;;;;5093997;28;20124;-55
2023/09/25 07:00:36;;;;;;;4.88;2.85;;;13.20;99.90;;;;;;5095519;28;20390;-53
2023/09/25 07:03:02;;;;;;;4.30;2.50;;;13.20;99.90;;;;;;5095177;28;20111;-52
2023/09/25 07:05:28;;;;;;;4.72;2.50;;;13.20;99.90;;;;;;5095354;28;20044;-52
2023/09/25 07:07:56;;;;;;;4.40;2.92;;;13.30;99.90;;;;;;5095126;28;20048;-54
2023/09/25 07:10:22;;;;;;;6.88;2.65;;;13.30;99.90;;;;;;5095235;28;20068;-54
2023/09/25 07:12:47;;;;;;;7.95;2.97;;;13.40;99.90;;;;;;5089856;28;20076;-53
2023/09/25 07:15:13;;;;;;;5.10;2.60;;;13.40;99.90;;;;;;5091909;28;20054;-55
2023/09/25 07:17:39;;;;;;;5.00;2.92;;;13.40;99.90;;;;;;5093909;28;20046;-55
2023/09/25 07:20:05;;;;;;;5.68;2.42;;;13.50;99.90;;;;;;5094716;28;20079;-54
2023/09/25 07:22:31;;;;;;;3.30;2.08;;;13.50;99.90;;;;;;5095036;28;20114;-53
2023/09/25 07:24:57;;;;;;;5.88;2.53;;;13.50;99.90;;;;;;5094745;28;20044;-53
2023/09/25 07:27:23;;;;;;;5.25;2.80;;;13.60;99.90;;;;;;5094623;28;20032;-54
2023/09/25 07:29:48;;;;;;;5.60;2.35;;;13.70;99.90;;;;;;5094957;28;20036;-55
2023/09/25 07:32:18;;;;;;;3.42;2.30;;;13.60;99.90;;;;;;5095199;28;20087;-54
2023/09/25 07:34:45;;;;;;;7.28;2.83;;;13.60;99.90;;;;;;5094735;28;20032;-55
2023/09/25 07:37:12;;;;;;;6.13;2.58;;;13.80;99.90;;;;;;5094580;28;20044;-54
2023/09/25 07:39:40;;;;;;;6.40;2.97;;;13.90;99.90;;;;;;5094525;28;20035;-52
2023/09/25 07:42:06;;;;;;;4.75;2.50;;;14.00;99.90;;;;;;5074262;28;20040;-54
2023/09/25 07:44:34;;;;;;;4.15;2.20;;;14.00;99.90;;;;;;5094694;28;20367;-53
2023/09/25 07:47:01;;;;;;;4.00;2.45;;;14.20;99.90;;;;;;5091757;28;20036;-54
2023/09/25 07:49:29;;;;;;;7.25;2.20;;;14.30;99.90;;;;;;5093159;28;20111;-55
2023/09/25 07:52:00;;;;;;;3.85;2.40;;;14.40;99.90;;;;;;5094332;28;20036;-54
2023/09/25 07:54:26;;;;;;;5.55;2.63;;;14.50;99.90;;;;;;5094291;28;20040;-54
2023/09/25 07:56:52;;;;;;;7.72;2.65;;;14.60;99.90;;;;;;5093005;28;20077;-55
2023/09/25 07:59:17;;;;;;;5.35;2.83;;;14.80;99.90;;;;;;5094411;28;20483;-55
2023/09/25 08:01:43;;;;;;;4.63;2.50;;;15.00;99.90;;;;;;5094183;28;20555;-55
2023/09/25 08:04:09;;;;;;;6.18;2.70;;;15.00;99.90;;;;;;5094131;28;20051;-55
2023/09/25 08:06:34;;;;;;;5.43;2.40;;;15.00;99.90;;;;;;5093094;28;20127;-55
2023/09/25 08:09:00;;;;;;;5.45;2.70;;;15.10;99.90;;;;;;5094338;28;20210;-53
2023/09/25 08:11:26;;;;;;;6.15;2.75;;;15.10;99.90;;;;;;5090615;28;20036;-54
2023/09/25 08:13:54;;;;;;;4.95;2.70;;;15.10;99.90;;;;;;5078419;28;20529;-55
2023/09/25 08:16:22;;;;;;;3.33;2.20;;;15.20;99.90;;;;;;5091209;28;20041;-52
2023/09/25 08:18:50;;;;;;;3.35;2.22;;;15.20;99.90;;;;;;5092166;28;20484;-55
2023/09/25 08:21:16;;;;;;;6.78;2.63;;;15.20;99.90;;;;;;5092526;28;20101;-55
2023/09/25 08:23:42;;;;;;;7.88;2.65;;;15.30;99.90;;;;;;5093822;28;20062;-54
2023/09/25 08:26:08;;;;;;;6.72;2.38;;;15.30;99.90;;;;;;5094452;28;20814;-56
2023/09/25 08:28:34;;;;;;;4.35;2.40;;;15.30;99.90;;;;;;5093504;28;20105;-53
2023/09/25 08:31:00;;;;;;;4.22;2.17;;;15.40;99.90;;;;;;5093751;28;20036;-54
2023/09/25 08:33:26;;;;;;;4.88;2.20;;;15.40;99.90;;;;;;5092368;28;20490;-53
2023/09/25 08:35:52;;;;;;;6.65;2.47;;;15.50;99.90;;;;;;5093438;28;20039;-56
2023/09/25 08:38:18;;;;;;;3.75;2.42;;;15.60;99.90;;;;;;5093330;28;20036;-52
2023/09/25 08:40:47;;;;;;;5.68;2.10;;;15.60;99.90;;;;;;5093364;28;20036;-51
2023/09/25 08:43:14;;;;;;;4.80;2.30;;;15.70;99.90;;;;;;5082553;28;20078;-54
2023/09/25 08:45:41;;;;;;;3.67;2.13;;;15.80;99.90;;;;;;5093369;28;20097;-52
2023/09/25 08:48:11;;;;;;;4.90;2.60;;;16.00;99.90;;;;;;5093288;28;20031;-55
2023/09/25 08:50:38;;;;;;;4.78;2.47;;;16.20;99.90;;;;;;5093173;28;20039;-54
2023/09/25 08:53:05;;;;;;;5.63;2.25;;;16.50;99.90;;;;;;5093557;28;20055;-57
2023/09/25 08:55:32;;;;;;;4.70;2.25;;;16.60;99.90;;;;;;5093101;28;20044;-55
2023/09/25 08:58:00;;;;;;;4.72;2.40;;;16.80;99.90;;;;;;5093290;28;20043;-53
2023/09/25 09:00:27;;;;;;;4.20;2.20;;;17.00;99.90;;;;;;5093005;28;20043;-55
2023/09/25 09:02:53;;;;;;;5.80;2.30;;;17.10;99.90;;;;;;5093103;28;20603;-53
2023/09/25 09:05:19;;;;;;;5.70;2.42;;;17.30;99.90;;;;;;5092854;28;20067;-53
2023/09/25 09:08:06;;;;;;;9.50;3.20;;;17.60;99.90;;;;;;5092696;28;20054;-53
2023/09/25 09:10:37;;;;;;;3.63;2.33;;;17.60;99.90;;;;;;5092875;28;20032;-52
2023/09/25 09:13:09;;;;;;;6.55;2.90;;;17.60;99.90;;;;;;5091952;28;20575;-54
2023/09/25 09:15:35;;;;;;;6.40;2.53;;;17.70;99.90;;;;;;5092812;28;20075;-52
2023/09/25 09:18:22;;;;;;;3.65;1.88;;;17.80;99.90;;;;;;5091374;28;20144;-54
2023/09/25 09:20:49;;;;;;;5.35;2.10;;;17.80;99.90;;;;;;5092505;28;20055;-53
2023/09/25 09:23:15;;;;;;;3.92;2.20;;;17.90;99.90;;;;;;5092806;28;20039;-55
2023/09/25 09:25:47;;;;;;;5.50;2.08;;;17.90;99.90;;;;;;5092453;28;20119;-55
2023/09/25 09:28:13;;;;;;;4.00;2.20;;;17.80;99.90;;;;;;5092083;28;20048;-54
2023/09/25 09:30:40;;;;;;;4.25;2.17;;;17.90;99.90;;;;;;5092565;28;20119;-54
2023/09/25 09:33:09;;;;;;;5.75;2.33;;;17.90;99.90;;;;;;5092532;28;20047;-55
2023/09/25 09:35:35;;;;;;;5.85;2.00;;;18.00;99.90;;;;;;5092230;28;20080;-52
2023/09/25 09:38:04;;;;;;;7.82;2.47;;;18.00;99.90;;;;;;5092295;28;20036;-52
2023/09/25 09:40:30;;;;;;;5.50;2.53;;;18.00;99.90;;;;;;5092120;28;20509;-52
2023/09/25 09:42:57;;;;;;;3.25;1.77;;;18.10;99.90;;;;;;5092209;28;20038;-54
2023/09/25 09:45:23;;;;;;;4.05;2.13;;;18.00;99.90;;;;;;5092291;28;20036;-52
2023/09/25 09:47:51;;;;;;;6.55;2.10;;;18.00;99.90;;;;;;5092255;28;20080;-54
2023/09/25 09:50:22;;;;;;;6.63;2.20;;;18.10;99.90;;;;;;5092310;28;20028;-54
2023/09/25 09:52:49;;;;;;;6.93;2.53;;;18.10;99.90;;;;;;5092193;28;20031;-56
2023/09/25 09:55:16;;;;;;;4.18;2.17;;;18.20;99.90;;;;;;5091917;28;20038;-53
2023/09/25 09:57:42;;;;;;;5.05;2.00;;;18.20;99.90;;;;;;5091988;28;20032;-54
2023/09/25 10:00:09;;;;;;;2.88;1.85;;;18.30;99.90;;;;;;5082012;28;20047;-55
2023/09/25 10:02:37;;;;;;;4.22;2.10;;;18.30;99.90;;;;;;5091651;28;20036;-55
2023/09/25 10:05:03;;;;;;;2.97;1.67;;;18.40;99.90;;;;;;5092292;28;20040;-54
2023/09/25 10:07:29;;;;;;;5.63;1.70;;;18.30;99.90;;;;;;5090451;28;20035;-54
2023/09/25 10:10:13;;;;;;;3.50;1.60;;;18.40;99.90;;;;;;5091911;28;20039;-55
2023/09/25 10:12:49;;;;;;;4.00;1.85;;;18.50;99.90;;;;;;5087732;28;20486;-55
2023/09/25 10:15:22;;;;;;;4.47;1.90;;;18.60;99.90;;;;;;5091665;28;20036;-54
2023/09/25 10:17:48;;;;;;;4.65;1.80;;;18.70;99.90;;;;;;5086894;28;20052;-55
2023/09/25 10:20:36;;;;;;;8.68;1.95;;;18.80;99.90;;;;;;5091536;28;20594;-55
2023/09/25 10:23:16;;;;;;;3.60;1.70;;;18.80;99.90;;;;;;5090708;28;20453;-54
2023/09/25 10:25:57;;;;;;;3.90;2.22;;;18.80;99.90;;;;;;5091632;28;20072;-54
2023/09/25 10:28:31;;;;;;;4.90;1.77;;;18.90;99.90;;;;;;5091529;28;20040;-56
2023/09/25 10:30:58;;;;;;;2.35;1.60;;;18.90;99.90;;;;;;5064097;28;20042;-55
2023/09/25 10:33:58;;;;;;;2.78;1.80;;;19.00;99.90;;;;;;5091734;28;20040;-56
2023/09/25 10:36:37;;;;;;;3.10;1.65;;;19.00;99.90;;;;;;5091617;28;20039;-55
2023/09/25 10:39:06;;;;;;;4.13;1.88;;;19.00;99.90;;;;;;5091283;28;20502;-53
2023/09/25 10:41:32;;;;;;;5.82;1.90;;;19.00;99.90;;;;;;5086513;28;20094;-54
2023/09/25 10:43:58;;;;;;;4.15;1.65;;;19.10;99.90;;;;;;5086697;28;20483;-53
2023/09/25 10:46:24;;;;;;;2.47;1.65;;;19.10;99.90;;;;;;5088104;28;20099;-53
2023/09/25 10:48:50;;;;;;;4.97;2.00;;;19.10;99.90;;;;;;5083854;28;20565;-51
2023/09/25 10:51:16;;;;;;;2.50;1.60;;;19.20;99.90;;;;;;5091765;28;20537;-55
2023/09/25 10:53:43;;;;;;;2.70;1.58;;;19.20;99.90;;;;;;5091235;28;20437;-54
2023/09/25 10:56:11;;;;;;;3.03;1.92;;;19.30;99.90;;;;;;5091034;28;20036;-53
2023/09/25 10:58:37;;;;;;;3.47;2.10;;;19.30;99.90;;;;;;5091313;28;20036;-49
2023/09/25 11:01:04;;;;;;;3.53;1.70;;;19.30;99.90;;;;;;5091288;28;20044;-53
2023/09/25 11:03:35;;;;;;;2.55;1.80;;;19.40;99.90;;;;;;5091234;28;20105;-54
2023/09/25 11:06:01;;;;;;;4.72;1.85;;;19.40;99.90;;;;;;5091287;28;20059;-56
2023/09/25 11:08:27;;;;;;;5.20;1.67;;;19.40;99.90;;;;;;5091042;28;20040;-55
2023/09/25 11:10:53;;;;;;;5.30;1.85;;;19.60;99.90;;;;;;5091167;28;20414;-53
2023/09/25 11:13:20;;;;;;;3.55;1.60;;;19.70;99.90;;;;;;5087346;28;20043;-54
2023/09/25 11:15:46;;;;;;;3.22;1.48;;;19.60;99.90;;;;;;5089929;28;20504;-55
2023/09/25 11:18:13;;;;;;;2.33;1.60;;;19.70;99.90;;;;;;5086995;28;20097;-54
2023/09/25 11:20:41;;;;;;;6.90;1.92;;;19.80;99.90;;;;;;5090804;28;20052;-55
2023/09/25 11:23:09;;;;;;;5.45;1.73;;;19.90;99.90;;;;;;5089958;28;20044;-52
2023/09/25 11:25:42;;;;;;;3.08;1.50;;;19.90;99.90;;;;;;5094852;28;20048;-51
2023/09/25 11:28:11;;;;;;;4.43;1.65;;;19.90;99.90;;;;;;5095272;28;20040;-54
2023/09/25 11:30:38;;;;;;;4.38;1.65;;;20.00;99.90;;;;;;5094880;28;20054;-52
2023/09/25 11:33:08;;;;;;;2.38;1.42;;;20.10;99.90;;;;;;5087606;28;20040;-55
2023/09/25 11:35:37;;;;;;;3.60;1.65;;;20.30;99.90;;;;;;5095092;28;20491;-55
2023/09/25 11:38:12;;;;;;;1.92;1.65;;;20.40;99.90;;;;;;5094566;28;20043;-53
2023/09/25 11:40:38;;;;;;;2.97;1.88;;;20.30;99.90;;;;;;5094724;28;20044;-55
2023/09/25 11:43:05;;;;;;;3.00;1.70;;;20.30;99.90;;;;;;5092796;28;20493;-55
2023/09/25 11:45:31;;;;;;;3.47;1.88;;;20.30;99.90;;;;;;5094547;28;20495;-55
2023/09/25 11:47:56;;;;;;;4.93;1.90;;;20.30;99.90;;;;;;5092088;28;20036;-53
2023/09/25 11:50:22;;;;;;;3.30;1.90;;;20.30;99.90;;;;;;5094520;28;20028;-55
2023/09/25 11:52:48;;;;;;;2.85;1.65;;;20.20;99.90;;;;;;5094495;28;20482;-54
2023/09/25 11:55:16;;;;;;;3.28;1.60;;;20.20;99.90;;;;;;5094278;28;20068;-55
2023/09/25 11:57:42;;;;;;;3.75;1.77;;;20.10;99.90;;;;;;5094210;28;20032;-54
2023/09/25 12:00:16;;;;;;;2.58;1.75;;;20.10;99.90;;;;;;5094245;28;20043;-55
2023/09/25 12:02:49;;;;;;;3.00;1.83;;;20.20;99.90;;;;;;5094092;28;20032;-55
2023/09/25 12:05:15;;;;;;;4.43;1.95;;;20.30;99.90;;;;;;5094424;28;20039;-54
2023/09/25 12:07:44;;;;;;;2.38;1.50;;;20.40;99.90;;;;;;5094243;28;20036;-55
2023/09/25 12:10:16;;;;;;;4.32;2.00;;;20.50;99.90;;;;;;5094035;28;20545;-52
2023/09/25 12:12:44;;;;;;;3.22;2.13;;;20.60;99.90;;;;;;5092309;28;20115;-55
2023/09/25 12:15:11;;;;;;;3.95;2.25;;;20.70;99.90;;;;;;5093997;28;20040;-55
2023/09/25 12:17:38;;;;;;;2.87;1.70;;;20.80;99.90;;;;;;5091847;28;20028;-54
2023/09/25 12:20:15;;;;;;;6.15;2.47;;;20.80;99.90;;;;;;5093718;28;20048;-55
2023/09/25 12:22:45;;;;;;;2.92;2.00;;;20.80;99.90;;;;;;5093737;28;20044;-55
2023/09/25 12:25:16;;;;;;;3.95;1.88;;;20.80;99.90;;;;;;5093714;28;20123;-54
2023/09/25 12:27:43;;;;;;;4.22;1.80;;;20.80;99.90;;;;;;5093760;28;20390;-54
2023/09/25 12:30:12;;;;;;;4.25;2.00;;;20.80;99.90;;;;;;5092386;28;20042;-55
2023/09/25 12:32:39;;;;;;;3.53;1.80;;;20.80;99.90;;;;;;5086695;28;20046;-54
2023/09/25 12:35:06;;;;;;;3.03;1.80;;;20.70;99.90;;;;;;5092674;28;20062;-54
2023/09/25 12:37:31;;;;;;;3.00;1.60;;;20.70;99.90;;;;;;5093229;28;20545;-53
2023/09/25 12:39:57;;;;;;;7.32;2.13;;;20.60;99.90;;;;;;5093252;28;20119;-55
2023/09/25 12:42:23;;;;;;;3.40;1.90;;;20.60;99.90;;;;;;5084292;28;20029;-56
2023/09/25 12:44:49;;;;;;;6.85;1.92;;;20.60;99.90;;;;;;5088971;28;20493;-54
2023/09/25 12:47:15;;;;;;;3.22;2.13;;;20.50;99.90;;;;;;5085844;28;20040;-55